createdAt,value
2023-09-10T00:01:24.597Z,22.70
2023-09-10T00:03:52.691Z,21.98
2023-09-10T00:06:20.733Z,23.35
2023-09-10T00:08:48.773Z,22.70
2023-09-10T00:11:16.849Z,22.73
2023-09-10T00:13:44.981Z,22.23
2023-09-10T00:16:13.081Z,23.50
2023-09-10T00:18:42.559Z,23.65
2023-09-10T00:21:11.084Z,22.83
2023-09-10T00:23:40.007Z,22.35
2023-09-10T00:26:08.897Z,22.75
2023-09-10T00:28:37.142Z,22.15
2023-09-10T00:31:06.050Z,21.55
2023-09-10T00:33:34.114Z,21.55
2023-09-10T00:36:03.591Z,22.17
2023-09-10T00:38:31.671Z,21.67
2023-09-10T00:40:59.749Z,21.60
2023-09-10T00:43:27.791Z,21.38
2023-09-10T00:45:56.066Z,20.90
2023-09-10T00:48:24.474Z,21.23
2023-09-10T00:50:52.982Z,21.27
2023-09-10T00:53:23.833Z,21.40
2023-09-10T00:55:52.625Z,20.92
2023-09-10T00:58:20.760Z,20.58
2023-09-10T01:00:49.636Z,21.02
2023-09-10T01:03:17.942Z,20.05
2023-09-10T01:05:46.109Z,21.48
2023-09-10T01:08:14.288Z,20.95
2023-09-10T01:10:51.376Z,21.88
2023-09-10T01:13:29.260Z,21.67
2023-09-10T01:16:02.116Z,20.30
2023-09-10T01:18:35.781Z,21.80
2023-09-10T01:21:27.323Z,21.23
2023-09-10T01:24:01.313Z,21.02
2023-09-10T01:26:30.774Z,21.17
2023-09-10T01:28:59.019Z,20.80
2023-09-10T01:31:28.052Z,20.63
2023-09-10T01:33:59.401Z,21.83
2023-09-10T01:36:36.094Z,21.67
2023-09-10T01:39:10.192Z,21.65
2023-09-10T01:41:41.354Z,21.70
2023-09-10T01:44:10.659Z,22.60
2023-09-10T01:46:39.201Z,20.58
2023-09-10T01:49:08.460Z,22.42
2023-09-10T01:51:36.616Z,21.75
2023-09-10T01:54:05.055Z,21.40
2023-09-10T01:56:33.234Z,21.73
2023-09-10T01:59:02.690Z,22.13
2023-09-10T02:01:30.938Z,22.38
2023-09-10T02:03:59.208Z,21.85
2023-09-10T02:06:28.217Z,21.98
2023-09-10T02:08:56.319Z,22.55
2023-09-10T02:11:24.378Z,23.00
2023-09-10T02:13:54.965Z,22.50
2023-09-10T02:16:24.892Z,22.98
2023-09-10T02:18:52.983Z,22.58
2023-09-10T02:21:21.173Z,22.58
2023-09-10T02:23:49.120Z,22.75
2023-09-10T02:26:17.569Z,22.27
2023-09-10T02:28:45.642Z,22.55
2023-09-10T02:31:13.755Z,23.17
2023-09-10T02:33:43.206Z,23.30
2023-09-10T02:36:11.244Z,22.38
2023-09-10T02:38:39.491Z,22.27
2023-09-10T02:41:07.705Z,22.38
2023-09-10T02:43:35.853Z,23.88
2023-09-10T02:46:04.374Z,22.80
2023-09-10T02:48:32.542Z,23.90
2023-09-10T02:51:01.906Z,23.90
2023-09-10T02:53:29.883Z,24.13
2023-09-10T02:56:01.983Z,24.25
2023-09-10T02:58:33.418Z,23.25
2023-09-10T03:01:06.008Z,24.90
2023-09-10T03:03:34.877Z,24.23
2023-09-10T03:06:04.491Z,24.80
2023-09-10T03:08:37.113Z,25.27
2023-09-10T03:11:06.266Z,25.95
2023-09-10T03:13:34.427Z,25.17
2023-09-10T03:16:02.532Z,25.48
2023-09-10T03:18:30.667Z,25.85
2023-09-10T03:20:58.747Z,26.17
2023-09-10T03:23:28.321Z,25.58
2023-09-10T03:25:56.543Z,25.58
2023-09-10T03:28:24.686Z,26.58
2023-09-10T03:30:58.624Z,27.25
2023-09-10T03:33:26.724Z,26.58
2023-09-10T03:35:54.879Z,26.95
2023-09-10T03:38:22.982Z,28.60
2023-09-10T03:40:52.525Z,28.35
2023-09-10T03:43:21.828Z,28.67
2023-09-10T03:45:51.994Z,27.50
2023-09-10T03:48:20.044Z,28.65
2023-09-10T03:50:48.192Z,28.85
2023-09-10T03:53:16.308Z,29.38
2023-09-10T03:55:44.376Z,28.73
2023-09-10T03:58:13.924Z,28.30
2023-09-10T04:00:42.074Z,29.50
2023-09-10T04:03:10.286Z,29.92
2023-09-10T04:05:38.421Z,28.58
2023-09-10T04:08:07.746Z,28.65
2023-09-10T04:10:35.807Z,28.73
2023-09-10T04:13:03.921Z,29.05
2023-09-10T04:15:33.679Z,29.50
2023-09-10T04:18:01.807Z,29.35
2023-09-10T04:20:29.924Z,30.27
2023-09-10T04:22:58.252Z,29.08
2023-09-10T04:25:26.314Z,30.60
2023-09-10T04:27:54.391Z,30.02
2023-09-10T04:30:22.430Z,29.00
2023-09-10T04:32:51.831Z,29.90
2023-09-10T04:35:20.039Z,31.35
2023-09-10T04:37:48.108Z,31.88
2023-09-10T04:40:17.273Z,31.58
2023-09-10T04:42:45.312Z,30.60
2023-09-10T04:45:13.365Z,32.72
2023-09-10T04:47:41.368Z,31.85
2023-09-10T04:50:13.865Z,31.95
2023-09-10T04:52:42.050Z,31.95
2023-09-10T04:55:10.262Z,31.90
2023-09-10T04:57:38.311Z,31.27
2023-09-10T05:00:10.041Z,32.85
2023-09-10T05:02:38.420Z,32.63
2023-09-10T05:05:07.565Z,31.70
2023-09-10T05:07:37.123Z,32.22
2023-09-10T05:10:05.487Z,32.90
2023-09-10T05:12:33.529Z,33.15
2023-09-10T05:15:01.570Z,34.58
2023-09-10T05:17:29.703Z,35.03
2023-09-10T05:19:58.017Z,33.30
2023-09-10T05:22:26.093Z,33.85
2023-09-10T05:24:57.452Z,33.45
2023-09-10T05:27:25.503Z,33.38
2023-09-10T05:29:53.728Z,34.08
2023-09-10T05:32:21.778Z,34.08
2023-09-10T05:34:49.798Z,33.20
2023-09-10T05:37:17.854Z,34.38
2023-09-10T05:39:46.896Z,34.33
2023-09-10T05:42:16.281Z,34.53
2023-09-10T05:44:43.300Z,33.70
2023-09-10T05:47:11.410Z,33.45
2023-09-10T05:49:39.710Z,32.95
2023-09-10T05:52:07.779Z,33.63
2023-09-10T05:54:35.739Z,33.55
2023-09-10T05:57:04.048Z,33.42
2023-09-10T05:59:33.386Z,32.92
2023-09-10T06:02:01.916Z,34.47
2023-09-10T06:04:30.030Z,34.92
2023-09-10T06:06:58.275Z,34.80
2023-09-10T06:09:26.265Z,33.90
2023-09-10T06:11:54.210Z,34.78
2023-09-10T06:14:22.222Z,33.05
2023-09-10T06:16:51.727Z,33.53
2023-09-10T06:19:19.803Z,35.15
2023-09-10T06:21:47.961Z,33.65
2023-09-10T06:24:15.969Z,34.47
2023-09-10T06:26:44.572Z,34.95
2023-09-10T06:29:15.546Z,34.45
2023-09-10T06:31:43.723Z,34.42
2023-09-10T06:34:13.079Z,36.10
2023-09-10T06:36:41.196Z,35.20
2023-09-10T06:39:09.199Z,35.10
2023-09-10T06:41:37.263Z,33.95
2023-09-10T06:44:05.562Z,34.50
2023-09-10T06:46:33.557Z,34.88
2023-09-10T06:49:01.531Z,33.50
2023-09-10T06:51:30.825Z,34.53
2023-09-10T06:53:58.820Z,36.13
2023-09-10T06:56:27.282Z,36.03
2023-09-10T06:58:55.287Z,35.13
2023-09-10T07:01:23.497Z,35.60
2023-09-10T07:03:54.269Z,35.70
2023-09-10T07:06:22.211Z,35.85
2023-09-10T07:08:51.599Z,35.00
2023-09-10T07:11:20.003Z,34.03
2023-09-10T07:13:48.091Z,35.72
2023-09-10T07:16:16.687Z,35.50
2023-09-10T07:18:44.901Z,33.85
2023-09-10T07:21:12.813Z,34.63
2023-09-10T07:23:40.773Z,35.08
2023-09-10T07:26:10.079Z,36.70
2023-09-10T07:28:38.379Z,34.20
2023-09-10T07:31:08.970Z,34.40
2023-09-10T07:33:37.006Z,33.17
2023-09-10T07:36:05.376Z,34.75
2023-09-10T07:38:33.656Z,34.53
2023-09-10T07:41:01.711Z,33.33
2023-09-10T07:43:31.154Z,33.72
2023-09-10T07:45:59.182Z,34.10
2023-09-10T07:48:27.302Z,33.88
2023-09-10T07:50:56.849Z,35.00
2023-09-10T07:53:25.059Z,34.90
2023-09-10T07:55:53.924Z,33.08
2023-09-10T07:58:21.924Z,32.15
2023-09-10T08:00:54.614Z,32.58
2023-09-10T08:03:22.642Z,32.83
2023-09-10T08:05:50.788Z,32.85
2023-09-10T08:08:18.786Z,32.35
2023-09-10T08:10:47.654Z,32.03
2023-09-10T08:13:16.341Z,30.23
2023-09-10T08:15:44.713Z,30.85
2023-09-10T08:18:14.687Z,30.48
2023-09-10T08:20:43.771Z,29.98
2023-09-10T08:23:12.772Z,28.70
2023-09-10T08:25:40.885Z,28.70
2023-09-10T08:28:08.947Z,29.45
2023-09-10T08:30:36.927Z,28.45
2023-09-10T08:33:05.342Z,28.10
2023-09-10T08:35:47.136Z,26.80
2023-09-10T08:38:15.695Z,27.30
2023-09-10T08:40:50.261Z,27.88
2023-09-10T08:43:23.016Z,25.98
2023-09-10T08:45:51.817Z,25.02
2023-09-10T08:48:21.638Z,23.92
2023-09-10T08:50:51.169Z,21.60
2023-09-10T08:53:21.867Z,19.73
2023-09-10T08:55:50.777Z,19.80
2023-09-10T08:58:19.842Z,18.02
2023-09-10T09:00:51.097Z,17.85
2023-09-10T09:03:19.363Z,18.63
2023-09-10T09:05:50.958Z,19.08
2023-09-10T09:08:24.995Z,17.98
2023-09-10T09:10:53.715Z,17.38
2023-09-10T09:13:24.063Z,17.42
2023-09-10T09:15:53.116Z,16.75
2023-09-10T09:18:22.599Z,15.70
2023-09-10T09:20:54.075Z,14.95
2023-09-10T09:23:27.615Z,13.75
2023-09-10T09:25:57.500Z,13.40
2023-09-10T09:28:26.138Z,13.65
2023-09-10T09:30:54.684Z,11.15
2023-09-10T09:33:22.817Z,10.95
2023-09-10T09:35:52.126Z,10.52
2023-09-10T09:38:20.132Z,11.82
2023-09-10T09:40:48.827Z,10.88
2023-09-10T09:43:20.299Z,10.38
2023-09-10T09:45:49.551Z,10.15
2023-09-10T09:48:18.537Z,10.55
2023-09-10T09:50:48.081Z,11.43
2023-09-10T09:53:17.555Z,10.63
2023-09-10T09:55:46.626Z,9.88
2023-09-10T09:58:14.589Z,10.20
2023-09-10T10:00:42.550Z,9.55
2023-09-10T10:03:13.053Z,9.77
2023-09-10T10:05:41.128Z,8.57
2023-09-10T10:08:09.666Z,9.45
2023-09-10T10:10:46.802Z,9.90
2023-09-10T10:13:16.702Z,8.57
2023-09-10T10:15:46.087Z,8.98
2023-09-10T10:18:15.845Z,7.80
2023-09-10T10:20:47.410Z,8.90
2023-09-10T10:23:25.576Z,8.27
2023-09-10T10:25:59.238Z,8.43
2023-09-10T10:28:28.371Z,7.82
2023-09-10T10:31:03.889Z,7.63
2023-09-10T10:33:33.295Z,7.38
2023-09-10T10:36:10.531Z,7.78
2023-09-10T10:38:45.548Z,6.43
2023-09-10T10:41:19.105Z,6.35
2023-09-10T10:43:50.788Z,6.30
2023-09-10T10:46:21.037Z,6.50
2023-09-10T10:48:49.640Z,5.70
2023-09-10T10:51:19.494Z,5.65
2023-09-10T10:53:49.444Z,5.45
2023-09-10T10:56:19.512Z,5.47
2023-09-10T10:58:48.213Z,5.10
2023-09-10T11:01:16.274Z,5.25
2023-09-10T11:03:46.937Z,5.22
2023-09-10T11:06:15.679Z,5.60
2023-09-10T11:08:47.202Z,5.70
2023-09-10T11:11:51.298Z,5.00
2023-09-10T11:14:19.324Z,5.25
2023-09-10T11:16:47.659Z,4.65
2023-09-10T11:19:44.464Z,4.70
2023-09-10T11:22:12.425Z,4.88
2023-09-10T11:24:42.819Z,4.82
2023-09-10T11:27:23.116Z,4.88
2023-09-10T11:30:15.204Z,5.15
2023-09-10T11:32:46.033Z,5.22
2023-09-10T11:35:28.625Z,5.30
2023-09-10T11:37:58.838Z,5.50
2023-09-10T11:40:27.805Z,4.72
2023-09-10T11:42:57.608Z,4.18
2023-09-10T11:45:31.393Z,5.13
2023-09-10T11:47:59.522Z,5.38
2023-09-10T11:50:28.221Z,5.38
2023-09-10T11:52:56.425Z,4.68
2023-09-10T11:55:24.673Z,4.68
2023-09-10T11:57:54.943Z,4.60
2023-09-10T12:00:25.052Z,5.20
2023-09-10T12:02:56.643Z,4.57
2023-09-10T12:05:28.390Z,5.22
2023-09-10T12:07:59.223Z,5.00
2023-09-10T12:10:27.742Z,4.80
2023-09-10T12:12:56.880Z,4.85
2023-09-10T12:15:27.357Z,4.90
2023-09-10T12:17:55.614Z,4.78
2023-09-10T12:20:23.749Z,4.65
2023-09-10T12:22:52.040Z,4.30
2023-09-10T12:25:21.634Z,4.68
2023-09-10T12:27:49.919Z,4.60
2023-09-10T12:30:17.972Z,4.68
2023-09-10T12:32:47.373Z,4.93
2023-09-10T12:35:15.791Z,4.55
2023-09-10T12:37:51.992Z,4.88
2023-09-10T12:40:20.816Z,5.15
2023-09-10T12:42:49.153Z,4.80
2023-09-10T12:45:17.489Z,4.35
2023-09-10T12:47:47.331Z,4.88
2023-09-10T12:50:15.746Z,4.55
2023-09-10T12:52:43.723Z,4.35
2023-09-10T12:55:11.701Z,4.68
2023-09-10T12:57:39.708Z,5.07
2023-09-10T13:00:09.747Z,4.63
2023-09-10T13:02:37.857Z,4.32
2023-09-10T13:05:07.650Z,4.43
2023-09-10T13:07:35.881Z,4.50
2023-09-10T13:10:04.658Z,4.50
2023-09-10T13:12:32.635Z,4.50
2023-09-10T13:15:00.643Z,4.95
2023-09-10T13:17:28.725Z,5.07
2023-09-10T13:19:56.987Z,4.70
2023-09-10T13:22:26.288Z,5.05
2023-09-10T13:24:55.566Z,4.15
2023-09-10T13:27:23.764Z,4.88
2023-09-10T13:29:51.902Z,4.43
2023-09-10T13:32:19.883Z,4.75
2023-09-10T13:34:47.947Z,4.75
2023-09-10T13:37:15.937Z,5.10
2023-09-10T13:39:45.258Z,4.53
2023-09-10T13:42:13.681Z,4.13
2023-09-10T13:44:41.633Z,4.63
2023-09-10T13:47:09.616Z,4.40
2023-09-10T13:49:37.596Z,4.82
2023-09-10T13:52:06.225Z,4.15
2023-09-10T13:54:34.192Z,4.65
2023-09-10T13:57:03.533Z,4.53
2023-09-10T13:59:31.541Z,5.43
2023-09-10T14:01:59.648Z,4.65
2023-09-10T14:04:27.632Z,4.75
2023-09-10T14:06:55.647Z,4.30
2023-09-10T14:09:23.608Z,4.75
2023-09-10T14:11:51.547Z,5.10
2023-09-10T14:14:21.419Z,4.28
2023-09-10T14:16:49.507Z,4.80
2023-09-10T14:19:17.434Z,4.18
2023-09-10T14:21:45.385Z,4.95
2023-09-10T14:24:13.364Z,5.13
2023-09-10T14:26:41.387Z,4.60
2023-09-10T14:29:09.462Z,4.78
2023-09-10T14:31:39.029Z,4.72
2023-09-10T14:34:07.008Z,4.68
2023-09-10T14:36:34.998Z,4.95
2023-09-10T14:39:03.458Z,5.25
2023-09-10T14:41:31.597Z,5.05
2023-09-10T14:43:59.620Z,5.00
2023-09-10T14:46:27.714Z,5.38
2023-09-10T14:48:57.071Z,5.15
2023-09-10T14:51:25.035Z,4.53
2023-09-10T14:53:53.045Z,4.93
2023-09-10T14:56:21.256Z,4.80
2023-09-10T14:58:50.766Z,4.60
2023-09-10T15:01:21.147Z,4.28
2023-09-10T15:03:50.000Z,4.55
2023-09-10T15:06:19.436Z,4.90
2023-09-10T15:08:47.487Z,4.60
2023-09-10T15:11:15.460Z,4.90
2023-09-10T15:13:43.614Z,5.45
2023-09-10T15:16:11.807Z,5.88
2023-09-10T15:18:39.825Z,5.07
2023-09-10T15:21:07.859Z,5.47
2023-09-10T15:23:37.375Z,4.95
2023-09-10T15:26:05.399Z,4.75
2023-09-10T15:28:33.593Z,5.45
2023-09-10T15:31:01.613Z,4.63
2023-09-10T15:33:29.695Z,4.88
2023-09-10T15:35:57.705Z,5.53
2023-09-10T15:38:25.986Z,5.28
2023-09-10T15:40:56.096Z,4.70
2023-09-10T15:43:24.325Z,4.50
2023-09-10T15:45:52.349Z,4.68
2023-09-10T15:48:20.393Z,4.43
2023-09-10T15:50:48.619Z,5.28
2023-09-10T15:53:17.091Z,5.28
2023-09-10T15:55:45.096Z,4.97
2023-09-10T15:58:14.490Z,4.80
2023-09-10T16:00:42.772Z,5.25
2023-09-10T16:03:11.460Z,4.72
2023-09-10T16:05:40.439Z,5.65
2023-09-10T16:08:08.494Z,5.00
2023-09-10T16:10:37.179Z,5.00
2023-09-10T16:13:06.449Z,6.47
2023-09-10T16:15:35.795Z,6.32
2023-09-10T16:18:03.974Z,5.55
2023-09-10T16:20:32.137Z,5.32
2023-09-10T16:23:00.220Z,5.53
2023-09-10T16:25:28.246Z,5.20
2023-09-10T16:27:56.268Z,6.03
2023-09-10T16:30:24.380Z,5.65
2023-09-10T16:32:53.734Z,5.30
2023-09-10T16:35:21.826Z,5.88
2023-09-10T16:37:49.873Z,5.93
2023-09-10T16:40:18.002Z,6.00
2023-09-10T16:42:45.971Z,6.05
2023-09-10T16:45:13.953Z,6.45
2023-09-10T16:47:42.454Z,6.57
2023-09-10T16:50:12.536Z,6.60
2023-09-10T16:52:40.721Z,6.70
2023-09-10T16:55:09.868Z,6.25
2023-09-10T16:57:37.822Z,7.15
2023-09-10T17:00:07.356Z,6.50
2023-09-10T17:02:36.576Z,6.72
2023-09-10T17:05:04.894Z,7.75
2023-09-10T17:07:36.285Z,7.15
2023-09-10T17:10:04.959Z,6.65
2023-09-10T17:12:32.961Z,6.65
2023-09-10T17:15:01.726Z,6.28
2023-09-10T17:17:29.742Z,6.22
2023-09-10T17:19:57.702Z,7.00
2023-09-10T17:22:25.623Z,6.75
2023-09-10T17:24:55.034Z,7.15
2023-09-10T17:27:22.968Z,6.80
2023-09-10T17:29:55.406Z,6.50
2023-09-10T17:32:23.668Z,7.03
2023-09-10T17:34:51.771Z,6.43
2023-09-10T17:37:23.650Z,7.43
2023-09-10T17:39:52.104Z,7.45
2023-09-10T17:42:21.668Z,7.35
2023-09-10T17:44:52.455Z,7.60
2023-09-10T17:47:28.307Z,7.50
2023-09-10T17:50:06.450Z,7.43
2023-09-10T17:52:36.087Z,9.07
2023-09-10T17:55:06.686Z,9.52
2023-09-10T17:57:36.396Z,9.00
2023-09-10T18:00:05.216Z,9.70
2023-09-10T18:02:33.721Z,7.80
2023-09-10T18:05:02.064Z,7.93
2023-09-10T18:07:30.696Z,7.70
2023-09-10T18:09:59.099Z,7.00
2023-09-10T18:12:27.406Z,6.85
2023-09-10T18:14:56.842Z,6.80
2023-09-10T18:17:25.071Z,7.03
2023-09-10T18:19:53.332Z,7.22
2023-09-10T18:22:21.407Z,7.07
2023-09-10T18:24:49.663Z,6.75
2023-09-10T18:27:17.825Z,6.53
2023-09-10T18:29:46.285Z,6.90
2023-09-10T18:32:16.021Z,7.03
2023-09-10T18:34:44.508Z,6.63
2023-09-10T18:37:14.393Z,6.40
2023-09-10T18:39:42.461Z,6.38
2023-09-10T18:42:10.634Z,6.53
2023-09-10T18:44:38.758Z,6.93
2023-09-10T18:47:10.336Z,6.50
2023-09-10T18:49:40.362Z,7.00
2023-09-10T18:52:09.857Z,6.15
2023-09-10T18:54:40.145Z,6.20
2023-09-10T18:57:08.990Z,6.60
2023-09-10T18:59:37.144Z,6.70
2023-09-10T19:02:05.635Z,7.00
2023-09-10T19:04:33.945Z,6.53
2023-09-10T19:07:03.711Z,6.18
2023-09-10T19:09:33.895Z,7.65
2023-09-10T19:12:04.065Z,6.55
2023-09-10T19:14:33.136Z,6.63
2023-09-10T19:17:01.235Z,6.90
2023-09-10T19:19:29.741Z,6.97
2023-09-10T19:21:59.159Z,6.68
2023-09-10T19:24:29.098Z,7.13
2023-09-10T19:26:57.561Z,7.03
2023-09-10T19:29:25.912Z,7.13
2023-09-10T19:31:57.307Z,6.47
2023-09-10T19:34:25.747Z,6.50
2023-09-10T19:36:53.877Z,7.07
2023-09-10T19:39:30.516Z,7.68
2023-09-10T19:41:59.678Z,7.47
2023-09-10T19:44:48.709Z,7.25
2023-09-10T19:47:17.007Z,7.05
2023-09-10T19:49:46.115Z,7.22
2023-09-10T19:52:14.379Z,7.10
2023-09-10T19:54:50.101Z,6.82
2023-09-10T19:57:28.626Z,6.95
2023-09-10T19:59:57.564Z,7.43
2023-09-10T20:02:25.821Z,7.13
2023-09-10T20:04:54.196Z,7.50
2023-09-10T20:07:23.278Z,7.30
2023-09-10T20:09:53.440Z,8.07
2023-09-10T20:12:22.315Z,7.03
2023-09-10T20:15:13.726Z,7.07
2023-09-10T20:17:42.397Z,7.05
2023-09-10T20:20:13.568Z,7.18
2023-09-10T20:22:43.308Z,8.00
2023-09-10T20:25:13.086Z,7.25
2023-09-10T20:27:41.706Z,7.63
2023-09-10T20:30:11.770Z,7.93
2023-09-10T20:32:43.494Z,8.00
2023-09-10T20:35:12.096Z,7.70
2023-09-10T20:38:02.621Z,7.63
2023-09-10T20:40:34.255Z,9.38
2023-09-10T20:43:04.017Z,8.63
2023-09-10T20:45:32.855Z,7.80
2023-09-10T20:48:02.120Z,8.88
2023-09-10T20:50:31.796Z,8.85
2023-09-10T20:53:02.225Z,9.07
2023-09-10T20:55:34.245Z,8.23
2023-09-10T20:58:02.310Z,8.80
2023-09-10T21:00:31.184Z,8.23
2023-09-10T21:03:04.970Z,8.73
2023-09-10T21:05:41.503Z,8.43
2023-09-10T21:08:10.304Z,8.93
2023-09-10T21:10:40.759Z,8.52
2023-09-10T21:13:11.818Z,8.45
2023-09-10T21:15:40.390Z,8.45
2023-09-10T21:18:09.560Z,8.45
2023-09-10T21:20:39.092Z,9.05
2023-09-10T21:23:07.772Z,8.95
2023-09-10T21:25:37.718Z,9.05
2023-09-10T21:28:11.402Z,9.20
2023-09-10T21:30:39.520Z,10.07
2023-09-10T21:33:07.980Z,11.43
2023-09-10T21:35:37.455Z,13.50
2023-09-10T21:38:06.219Z,14.95
2023-09-10T21:40:37.351Z,15.65
2023-09-10T21:43:10.162Z,14.55
2023-09-10T21:45:40.812Z,13.52
2023-09-10T21:48:12.690Z,13.27
2023-09-10T21:50:41.831Z,13.55
2023-09-10T21:53:30.070Z,13.18
2023-09-10T21:55:58.925Z,11.65
2023-09-10T21:58:28.066Z,11.15
2023-09-10T22:01:00.214Z,10.45
2023-09-10T22:03:28.707Z,9.30
2023-09-10T22:05:59.451Z,8.93
2023-09-10T22:08:30.757Z,8.63
2023-09-10T22:11:00.188Z,9.30
2023-09-10T22:13:30.311Z,8.02
2023-09-10T22:16:00.526Z,8.13
2023-09-10T22:18:28.993Z,7.80
2023-09-10T22:21:00.120Z,7.43
2023-09-10T22:23:28.923Z,7.82
2023-09-10T22:25:58.705Z,7.40
2023-09-10T22:28:27.486Z,7.68
2023-09-10T22:30:56.941Z,7.90
2023-09-10T22:33:27.091Z,7.72
2023-09-10T22:35:57.380Z,7.20
2023-09-10T22:38:25.741Z,7.57
2023-09-10T22:40:56.397Z,6.90
2023-09-10T22:43:44.906Z,7.88
2023-09-10T22:46:13.106Z,7.10
2023-09-10T22:48:42.733Z,7.45
2023-09-10T22:51:13.810Z,7.43
2023-09-10T22:53:42.974Z,7.43
2023-09-10T22:56:11.086Z,7.30
2023-09-10T22:58:39.913Z,6.88
2023-09-10T23:01:08.553Z,6.65
2023-09-10T23:03:39.577Z,6.28
2023-09-10T23:06:09.441Z,7.20
2023-09-10T23:08:38.302Z,6.93
2023-09-10T23:11:15.258Z,7.47
2023-09-10T23:13:44.118Z,6.88
2023-09-10T23:16:12.463Z,7.13
2023-09-10T23:18:41.361Z,7.15
2023-09-10T23:21:11.558Z,6.70
2023-09-10T23:23:42.354Z,7.45
2023-09-10T23:26:11.923Z,7.28
2023-09-10T23:28:40.866Z,7.13
2023-09-10T23:31:11.701Z,7.47
2023-09-10T23:33:40.087Z,7.57
2023-09-10T23:36:08.524Z,6.80
2023-09-10T23:38:38.479Z,6.80
2023-09-10T23:41:09.503Z,7.35
2023-09-10T23:43:39.785Z,6.93
2023-09-10T23:46:08.386Z,7.50
2023-09-10T23:48:36.676Z,7.15
2023-09-10T23:51:06.228Z,7.32
2023-09-10T23:53:38.820Z,7.25
2023-09-10T23:56:06.953Z,7.50
2023-09-10T23:58:36.942Z,6.57
